Aeroporto :
LOGIN :

Iscrizione | Disclaimer

   EN    FR    IT 

 










Sommario :    VFR   VFR Marginale   IFR   IFR Intensivo   IFR Molto Intensivo
Visibilità : 
Base nubi : 
>= 8 km
>= 3000ft
5 / 8 km
1000 / 3000 ft
1500m / 5 km
500 / 1000 ft
800 / 1500m
200 / 500 ft
< 800m
< 200 ft
Simboli :   Temporali  Nebbia  Neve Forte  Precipitazioni Forti  Vento > 20 kt
SIGMETs :   Varie  Temporali  Ghiacco  Turbolenza  Onda orograficha  Ceneri Vulcaniche






- Altitudine del aeroporto : 529 ft
- Codice IATA : CHR


LFLX - Chateauroux

ULTIMO METAR :
  • 202030Z AUTO 24013KT 8000 -RADZ BKN009/// OVC014/// ///TCU 09/08 Q1025 BECMG NSC

METARs OBSOLETI :
  • 202000Z AUTO 25013KT 5000 -DZ BR FEW008 BKN014 BKN020 09/08 Q1024 TEMPO 30020G35KT 2500 RA BKN012 SCT020TCU
  • 201930Z AUTO 25017KT 9999 -RA BKN018 OVC028 10/08 Q1024 TEMPO 2500 RA BKN012 SCT020TCU BECMG 27006KT
  • 201900Z AUTO 24017KT 9999 OVC023 11/07 Q1023 TEMPO 30020G35KT 2500 RA BKN012 SCT020TCU
  • 201830Z AUTO 23016KT 9999 OVC028 11/06 Q1023 TEMPO 30020G35KT 2500 RA BKN012 SCT020TCU
  • 201800Z AUTO 23016KT 9999 OVC030 11/05 Q1022 TEMPO 30020G35KT 2500 RA BKN012 SCT020TCU

TAF TAF LFLX
Valido dal 20 a 18 ore il 22 a 00 ore UTC


201700Z 2018/2124 24015G25KT 9999 BKN020 BKN040
TEMPO 2018/2021 30020G35KT 2500 RA BKN012 SCT020TCU
BECMG 2021/2023 27006KT CAVOK
BECMG 2101/2103 2500 BR
PROB40
TEMPO 2103/2110 0400 FG VV///
BECMG 2110/2112 CAVOK



MetMap, La meteo Aeronautica in un colpo d'occhio ! - Copyright ORBIFLY Dicembre 2007 - Disclaimer

ORBIFLY MET'MAP TEAM :

Programmazione e sviluppo : Alexandra Zaïnal
Concezione : Baudouin d'Aumeries
Aiuto per la programmazione : Marc-Olivier Méhu
Supporto tecnico e logistico : Manuel Goepfert
Aiuto per la traduzione : Arnaldo La Scala

Contatto : metmap@orbifly.com




FONTI E CREDITI :

   NOAA